sensor_id;sensor_type;location;lat;lon;timestamp;temperature;humidity
15115;DHT22;7658;51.456;7.622;2022-08-03T00:01:39;19.00;99.90
15115;DHT22;7658;51.456;7.622;2022-08-03T00:04:06;19.00;99.90
15115;DHT22;7658;51.456;7.622;2022-08-03T00:06:32;19.00;99.90
15115;DHT22;7658;51.456;7.622;2022-08-03T00:08:58;18.90;99.90
15115;DHT22;7658;51.456;7.622;2022-08-03T00:11:24;18.90;99.90
15115;DHT22;7658;51.456;7.622;2022-08-03T00:13:50;18.90;99.90
15115;DHT22;7658;51.456;7.622;2022-08-03T00:16:17;18.90;99.90
15115;DHT22;7658;51.456;7.622;2022-08-03T00:18:43;18.90;99.90
15115;DHT22;7658;51.456;7.622;2022-08-03T00:21:08;18.90;99.90
15115;DHT22;7658;51.456;7.622;2022-08-03T00:23:35;18.80;99.90
15115;DHT22;7658;51.456;7.622;2022-08-03T00:26:01;18.80;99.90
15115;DHT22;7658;51.456;7.622;2022-08-03T00:28:27;18.70;99.90
15115;DHT22;7658;51.456;7.622;2022-08-03T00:30:52;18.70;99.90
15115;DHT22;7658;51.456;7.622;2022-08-03T00:33:20;18.60;99.90
15115;DHT22;7658;51.456;7.622;2022-08-03T00:35:46;18.50;99.90
15115;DHT22;7658;51.456;7.622;2022-08-03T00:38:12;18.50;99.90
15115;DHT22;7658;51.456;7.622;2022-08-03T00:40:39;18.50;99.90
15115;DHT22;7658;51.456;7.622;2022-08-03T00:43:06;18.50;99.90
15115;DHT22;7658;51.456;7.622;2022-08-03T00:45:38;18.50;99.90
15115;DHT22;7658;51.456;7.622;2022-08-03T00:48:05;18.40;99.90
15115;DHT22;7658;51.456;7.622;2022-08-03T00:50:34;18.30;99.90
15115;DHT22;7658;51.456;7.622;2022-08-03T00:53:02;18.30;99.90
15115;DHT22;7658;51.456;7.622;2022-08-03T00:55:29;18.30;99.90
15115;DHT22;7658;51.456;7.622;2022-08-03T00:57:56;18.20;99.90
15115;DHT22;7658;51.456;7.622;2022-08-03T01:00:24;18.20;99.90
15115;DHT22;7658;51.456;7.622;2022-08-03T01:02:51;18.10;99.90
15115;DHT22;7658;51.456;7.622;2022-08-03T01:05:18;18.10;99.90
15115;DHT22;7658;51.456;7.622;2022-08-03T01:10:53;18.10;99.90
15115;DHT22;7658;51.456;7.622;2022-08-03T01:13:35;18.10;99.90
15115;DHT22;7658;51.456;7.622;2022-08-03T01:18:54;18.10;99.90
15115;DHT22;7658;51.456;7.622;2022-08-03T01:27:14;18.10;99.90
15115;DHT22;7658;51.456;7.622;2022-08-03T01:35:34;18.00;99.90
15115;DHT22;7658;51.456;7.622;2022-08-03T01:38:04;18.10;99.90
15115;DHT22;7658;51.456;7.622;2022-08-03T01:40:33;18.00;99.90
15115;DHT22;7658;51.456;7.622;2022-08-03T01:43:02;18.00;99.90
15115;DHT22;7658;51.456;7.622;2022-08-03T01:45:29;17.90;99.90
15115;DHT22;7658;51.456;7.622;2022-08-03T01:47:56;17.80;99.90
15115;DHT22;7658;51.456;7.622;2022-08-03T01:50:26;17.70;99.90
15115;DHT22;7658;51.456;7.622;2022-08-03T01:52:55;17.70;99.90
15115;DHT22;7658;51.456;7.622;2022-08-03T01:55:22;17.70;99.90
15115;DHT22;7658;51.456;7.622;2022-08-03T01:57:50;17.60;99.90
15115;DHT22;7658;51.456;7.622;2022-08-03T02:00:17;17.60;99.90
15115;DHT22;7658;51.456;7.622;2022-08-03T02:02:46;17.60;99.90
15115;DHT22;7658;51.456;7.622;2022-08-03T02:05:14;17.50;99.90
15115;DHT22;7658;51.456;7.622;2022-08-03T02:07:41;17.50;99.90
15115;DHT22;7658;51.456;7.622;2022-08-03T02:10:10;17.40;99.90
15115;DHT22;7658;51.456;7.622;2022-08-03T02:12:37;17.40;99.90
15115;DHT22;7658;51.456;7.622;2022-08-03T02:15:04;17.50;99.90
15115;DHT22;7658;51.456;7.622;2022-08-03T02:17:32;17.50;99.90
15115;DHT22;7658;51.456;7.622;2022-08-03T02:20:00;17.50;99.90
15115;DHT22;7658;51.456;7.622;2022-08-03T02:22:27;17.50;99.90
15115;DHT22;7658;51.456;7.622;2022-08-03T02:24:54;17.40;99.90
15115;DHT22;7658;51.456;7.622;2022-08-03T02:27:25;17.40;99.90
15115;DHT22;7658;51.456;7.622;2022-08-03T02:30:06;17.40;99.90
15115;DHT22;7658;51.456;7.622;2022-08-03T02:32:38;17.40;99.90
15115;DHT22;7658;51.456;7.622;2022-08-03T02:35:08;17.40;99.90
15115;DHT22;7658;51.456;7.622;2022-08-03T02:37:41;17.40;99.90
15115;DHT22;7658;51.456;7.622;2022-08-03T02:40:09;17.40;99.90
15115;DHT22;7658;51.456;7.622;2022-08-03T02:42:37;17.40;99.90
15115;DHT22;7658;51.456;7.622;2022-08-03T02:45:06;17.40;99.90
15115;DHT22;7658;51.456;7.622;2022-08-03T02:47:35;17.40;99.90
15115;DHT22;7658;51.456;7.622;2022-08-03T02:50:05;17.40;99.90
15115;DHT22;7658;51.456;7.622;2022-08-03T02:52:33;17.40;99.90
15115;DHT22;7658;51.456;7.622;2022-08-03T02:55:02;17.30;99.90
15115;DHT22;7658;51.456;7.622;2022-08-03T02:57:30;17.30;99.90
15115;DHT22;7658;51.456;7.622;2022-08-03T02:59:57;17.20;99.90
15115;DHT22;7658;51.456;7.622;2022-08-03T03:02:25;17.30;99.90
15115;DHT22;7658;51.456;7.622;2022-08-03T03:04:52;17.30;99.90
15115;DHT22;7658;51.456;7.622;2022-08-03T03:07:20;17.20;99.90
15115;DHT22;7658;51.456;7.622;2022-08-03T03:09:47;17.20;99.90
15115;DHT22;7658;51.456;7.622;2022-08-03T03:12:13;17.20;99.90
15115;DHT22;7658;51.456;7.622;2022-08-03T03:14:40;17.20;99.90
15115;DHT22;7658;51.456;7.622;2022-08-03T03:17:08;17.20;99.90
15115;DHT22;7658;51.456;7.622;2022-08-03T03:19:34;17.20;99.90
15115;DHT22;7658;51.456;7.622;2022-08-03T03:22:02;17.20;99.90
15115;DHT22;7658;51.456;7.622;2022-08-03T03:24:29;17.20;99.90
15115;DHT22;7658;51.456;7.622;2022-08-03T03:26:55;17.20;99.90
15115;DHT22;7658;51.456;7.622;2022-08-03T03:29:22;17.20;99.90
15115;DHT22;7658;51.456;7.622;2022-08-03T03:31:48;17.10;99.90
15115;DHT22;7658;51.456;7.622;2022-08-03T03:34:15;17.10;99.90
15115;DHT22;7658;51.456;7.622;2022-08-03T03:36:41;17.00;99.90
15115;DHT22;7658;51.456;7.622;2022-08-03T03:39:07;17.00;99.90
15115;DHT22;7658;51.456;7.622;2022-08-03T03:41:33;17.00;99.90
15115;DHT22;7658;51.456;7.622;2022-08-03T03:43:59;16.90;99.90
15115;DHT22;7658;51.456;7.622;2022-08-03T03:46:25;16.90;99.90
15115;DHT22;7658;51.456;7.622;2022-08-03T03:48:51;16.90;99.90
15115;DHT22;7658;51.456;7.622;2022-08-03T03:51:17;16.90;99.90
15115;DHT22;7658;51.456;7.622;2022-08-03T03:54:01;16.90;99.90
15115;DHT22;7658;51.456;7.622;2022-08-03T03:56:28;16.90;99.90
15115;DHT22;7658;51.456;7.622;2022-08-03T03:58:54;16.90;99.90
15115;DHT22;7658;51.456;7.622;2022-08-03T04:01:20;16.80;99.90
15115;DHT22;7658;51.456;7.622;2022-08-03T04:03:46;16.80;99.90
15115;DHT22;7658;51.456;7.622;2022-08-03T04:06:12;16.80;99.90
15115;DHT22;7658;51.456;7.622;2022-08-03T04:08:57;16.80;99.90
15115;DHT22;7658;51.456;7.622;2022-08-03T04:11:51;16.80;99.90
15115;DHT22;7658;51.456;7.622;2022-08-03T04:14:18;16.80;99.90
15115;DHT22;7658;51.456;7.622;2022-08-03T04:16:57;16.80;99.90
15115;DHT22;7658;51.456;7.622;2022-08-03T04:21:59;16.80;99.90
15115;DHT22;7658;51.456;7.622;2022-08-03T04:24:45;16.90;99.90
15115;DHT22;7658;51.456;7.622;2022-08-03T04:27:21;16.90;99.90
15115;DHT22;7658;51.456;7.622;2022-08-03T04:29:49;16.80;99.90
15115;DHT22;7658;51.456;7.622;2022-08-03T04:32:16;16.80;99.90
15115;DHT22;7658;51.456;7.622;2022-08-03T04:34:42;16.80;99.90
15115;DHT22;7658;51.456;7.622;2022-08-03T04:37:11;16.80;99.90
15115;DHT22;7658;51.456;7.622;2022-08-03T04:39:41;16.70;99.90
15115;DHT22;7658;51.456;7.622;2022-08-03T04:42:08;16.70;99.90
15115;DHT22;7658;51.456;7.622;2022-08-03T04:44:39;16.70;99.90
15115;DHT22;7658;51.456;7.622;2022-08-03T04:47:05;16.80;99.90
15115;DHT22;7658;51.456;7.622;2022-08-03T04:49:31;16.80;99.90
15115;DHT22;7658;51.456;7.622;2022-08-03T04:51:59;16.80;99.90
15115;DHT22;7658;51.456;7.622;2022-08-03T04:54:25;16.80;99.90
15115;DHT22;7658;51.456;7.622;2022-08-03T04:56:51;16.80;99.90
15115;DHT22;7658;51.456;7.622;2022-08-03T04:59:17;16.80;99.90
15115;DHT22;7658;51.456;7.622;2022-08-03T05:01:43;16.90;99.90
15115;DHT22;7658;51.456;7.622;2022-08-03T05:04:08;16.90;99.90
15115;DHT22;7658;51.456;7.622;2022-08-03T05:06:34;17.00;99.90
15115;DHT22;7658;51.456;7.622;2022-08-03T05:09:00;17.10;99.90
15115;DHT22;7658;51.456;7.622;2022-08-03T05:11:26;17.20;99.90
15115;DHT22;7658;51.456;7.622;2022-08-03T05:13:52;17.20;99.90
15115;DHT22;7658;51.456;7.622;2022-08-03T05:16:17;17.30;99.90
15115;DHT22;7658;51.456;7.622;2022-08-03T05:18:43;17.30;99.90
15115;DHT22;7658;51.456;7.622;2022-08-03T05:21:10;17.40;99.90
15115;DHT22;7658;51.456;7.622;2022-08-03T05:23:39;17.50;99.90
15115;DHT22;7658;51.456;7.622;2022-08-03T05:26:05;17.60;99.90
15115;DHT22;7658;51.456;7.622;2022-08-03T05:28:31;17.70;99.90
15115;DHT22;7658;51.456;7.622;2022-08-03T05:30:57;17.80;99.90
15115;DHT22;7658;51.456;7.622;2022-08-03T05:33:23;17.80;99.90
15115;DHT22;7658;51.456;7.622;2022-08-03T05:35:48;17.90;99.90
15115;DHT22;7658;51.456;7.622;2022-08-03T05:38:14;18.00;99.90
15115;DHT22;7658;51.456;7.622;2022-08-03T05:40:40;18.00;99.90
15115;DHT22;7658;51.456;7.622;2022-08-03T05:43:06;18.10;99.90
15115;DHT22;7658;51.456;7.622;2022-08-03T05:45:31;18.10;99.90
15115;DHT22;7658;51.456;7.622;2022-08-03T05:47:57;18.20;99.90
15115;DHT22;7658;51.456;7.622;2022-08-03T05:50:23;18.30;99.90
15115;DHT22;7658;51.456;7.622;2022-08-03T05:52:49;18.40;99.90
15115;DHT22;7658;51.456;7.622;2022-08-03T05:55:15;18.50;99.90
15115;DHT22;7658;51.456;7.622;2022-08-03T05:57:41;18.50;99.90
15115;DHT22;7658;51.456;7.622;2022-08-03T06:00:09;18.60;99.90
15115;DHT22;7658;51.456;7.622;2022-08-03T06:02:36;18.60;99.90
15115;DHT22;7658;51.456;7.622;2022-08-03T06:05:02;18.70;99.90
15115;DHT22;7658;51.456;7.622;2022-08-03T06:07:28;18.80;99.90
15115;DHT22;7658;51.456;7.622;2022-08-03T06:09:54;18.90;99.90
15115;DHT22;7658;51.456;7.622;2022-08-03T06:12:20;19.00;99.90
15115;DHT22;7658;51.456;7.622;2022-08-03T06:14:46;19.10;99.90
15115;DHT22;7658;51.456;7.622;2022-08-03T06:17:12;19.20;99.90
15115;DHT22;7658;51.456;7.622;2022-08-03T06:19:38;19.30;99.90
15115;DHT22;7658;51.456;7.622;2022-08-03T06:22:03;19.40;99.90
15115;DHT22;7658;51.456;7.622;2022-08-03T06:24:29;19.40;99.90
15115;DHT22;7658;51.456;7.622;2022-08-03T06:26:55;19.50;99.90
15115;DHT22;7658;51.456;7.622;2022-08-03T06:29:21;19.60;99.90
15115;DHT22;7658;51.456;7.622;2022-08-03T06:31:47;19.70;99.90
15115;DHT22;7658;51.456;7.622;2022-08-03T06:34:12;19.80;99.90
15115;DHT22;7658;51.456;7.622;2022-08-03T06:36:38;19.90;99.90
15115;DHT22;7658;51.456;7.622;2022-08-03T06:39:04;20.00;99.90
15115;DHT22;7658;51.456;7.622;2022-08-03T06:41:31;20.10;99.90
15115;DHT22;7658;51.456;7.622;2022-08-03T06:43:56;20.10;99.90
15115;DHT22;7658;51.456;7.622;2022-08-03T06:46:22;20.20;99.90
15115;DHT22;7658;51.456;7.622;2022-08-03T06:48:48;20.30;99.90
15115;DHT22;7658;51.456;7.622;2022-08-03T06:51:13;20.40;99.90
15115;DHT22;7658;51.456;7.622;2022-08-03T06:53:39;20.50;99.90
15115;DHT22;7658;51.456;7.622;2022-08-03T06:56:06;20.60;99.90
15115;DHT22;7658;51.456;7.622;2022-08-03T06:58:32;20.70;99.90
15115;DHT22;7658;51.456;7.622;2022-08-03T07:00:58;20.80;99.90
15115;DHT22;7658;51.456;7.622;2022-08-03T07:03:23;20.90;99.90
15115;DHT22;7658;51.456;7.622;2022-08-03T07:05:49;21.00;99.90
15115;DHT22;7658;51.456;7.622;2022-08-03T07:08:16;21.10;99.90
15115;DHT22;7658;51.456;7.622;2022-08-03T07:10:43;21.20;99.90
15115;DHT22;7658;51.456;7.622;2022-08-03T07:13:08;21.30;99.90
15115;DHT22;7658;51.456;7.622;2022-08-03T07:15:35;21.40;99.90
15115;DHT22;7658;51.456;7.622;2022-08-03T07:18:01;21.50;99.90
15115;DHT22;7658;51.456;7.622;2022-08-03T07:20:26;21.60;99.90
15115;DHT22;7658;51.456;7.622;2022-08-03T07:22:52;21.80;99.90
15115;DHT22;7658;51.456;7.622;2022-08-03T07:25:18;21.90;99.90
15115;DHT22;7658;51.456;7.622;2022-08-03T07:27:47;22.00;99.90
15115;DHT22;7658;51.456;7.622;2022-08-03T07:30:14;22.10;99.90
15115;DHT22;7658;51.456;7.622;2022-08-03T07:32:41;22.20;99.90
15115;DHT22;7658;51.456;7.622;2022-08-03T07:35:08;22.30;99.90
15115;DHT22;7658;51.456;7.622;2022-08-03T07:37:34;22.40;99.90
15115;DHT22;7658;51.456;7.622;2022-08-03T07:40:01;22.50;99.90
15115;DHT22;7658;51.456;7.622;2022-08-03T07:42:28;22.60;99.90
15115;DHT22;7658;51.456;7.622;2022-08-03T07:44:54;22.80;99.90
15115;DHT22;7658;51.456;7.622;2022-08-03T07:47:25;23.10;99.90
15115;DHT22;7658;51.456;7.622;2022-08-03T07:49:53;23.20;99.90
15115;DHT22;7658;51.456;7.622;2022-08-03T07:52:19;23.40;99.90
15115;DHT22;7658;51.456;7.622;2022-08-03T07:55:05;23.60;99.90
15115;DHT22;7658;51.456;7.622;2022-08-03T07:57:31;23.80;99.90
15115;DHT22;7658;51.456;7.622;2022-08-03T07:59:57;24.20;99.90
15115;DHT22;7658;51.456;7.622;2022-08-03T08:02:23;24.40;99.90
15115;DHT22;7658;51.456;7.622;2022-08-03T08:04:49;24.50;99.90
15115;DHT22;7658;51.456;7.622;2022-08-03T08:07:14;24.60;99.90
15115;DHT22;7658;51.456;7.622;2022-08-03T08:09:40;24.60;99.90
15115;DHT22;7658;51.456;7.622;2022-08-03T08:12:06;24.80;99.90
15115;DHT22;7658;51.456;7.622;2022-08-03T08:14:34;25.00;99.90
15115;DHT22;7658;51.456;7.622;2022-08-03T08:17:00;25.00;99.90
15115;DHT22;7658;51.456;7.622;2022-08-03T08:19:26;25.10;99.90
15115;DHT22;7658;51.456;7.622;2022-08-03T08:21:52;25.30;99.90
15115;DHT22;7658;51.456;7.622;2022-08-03T08:24:17;25.40;99.90
15115;DHT22;7658;51.456;7.622;2022-08-03T08:26:43;25.50;99.90
15115;DHT22;7658;51.456;7.622;2022-08-03T08:29:09;25.60;99.90
15115;DHT22;7658;51.456;7.622;2022-08-03T08:31:35;25.70;99.90
15115;DHT22;7658;51.456;7.622;2022-08-03T08:34:01;25.90;99.90
15115;DHT22;7658;51.456;7.622;2022-08-03T08:36:34;25.90;99.90
15115;DHT22;7658;51.456;7.622;2022-08-03T08:39:00;26.00;99.90
15115;DHT22;7658;51.456;7.622;2022-08-03T08:41:26;26.00;99.90
15115;DHT22;7658;51.456;7.622;2022-08-03T08:43:53;26.20;99.90
15115;DHT22;7658;51.456;7.622;2022-08-03T08:46:19;26.30;99.90
15115;DHT22;7658;51.456;7.622;2022-08-03T08:48:46;26.60;99.90
15115;DHT22;7658;51.456;7.622;2022-08-03T08:51:13;26.70;99.90
15115;DHT22;7658;51.456;7.622;2022-08-03T08:53:43;26.90;99.90
15115;DHT22;7658;51.456;7.622;2022-08-03T08:56:13;26.90;99.90
15115;DHT22;7658;51.456;7.622;2022-08-03T08:58:53;26.90;99.90
15115;DHT22;7658;51.456;7.622;2022-08-03T09:01:21;27.00;99.90
15115;DHT22;7658;51.456;7.622;2022-08-03T09:03:47;27.10;99.90
15115;DHT22;7658;51.456;7.622;2022-08-03T09:06:14;27.20;99.90
15115;DHT22;7658;51.456;7.622;2022-08-03T09:08:40;27.30;99.90
15115;DHT22;7658;51.456;7.622;2022-08-03T09:11:06;27.40;99.90
15115;DHT22;7658;51.456;7.622;2022-08-03T09:13:34;27.50;99.90
15115;DHT22;7658;51.456;7.622;2022-08-03T09:16:18;27.60;99.90
15115;DHT22;7658;51.456;7.622;2022-08-03T09:18:53;27.80;99.90
15115;DHT22;7658;51.456;7.622;2022-08-03T09:21:24;27.90;99.90
15115;DHT22;7658;51.456;7.622;2022-08-03T09:23:56;28.10;99.90
15115;DHT22;7658;51.456;7.622;2022-08-03T09:26:27;28.20;99.90
15115;DHT22;7658;51.456;7.622;2022-08-03T09:28:58;28.30;99.90
15115;DHT22;7658;51.456;7.622;2022-08-03T09:31:31;28.40;99.90
15115;DHT22;7658;51.456;7.622;2022-08-03T09:33:59;28.50;99.90
15115;DHT22;7658;51.456;7.622;2022-08-03T09:36:41;28.50;99.90
15115;DHT22;7658;51.456;7.622;2022-08-03T09:39:10;28.40;99.90
15115;DHT22;7658;51.456;7.622;2022-08-03T09:41:38;28.50;99.90
15115;DHT22;7658;51.456;7.622;2022-08-03T09:44:04;28.50;99.90
15115;DHT22;7658;51.456;7.622;2022-08-03T09:46:29;28.60;99.90
15115;DHT22;7658;51.456;7.622;2022-08-03T09:49:11;28.70;99.90
15115;DHT22;7658;51.456;7.622;2022-08-03T09:51:38;28.80;99.90
15115;DHT22;7658;51.456;7.622;2022-08-03T09:54:05;29.00;99.90
15115;DHT22;7658;51.456;7.622;2022-08-03T09:56:45;29.10;99.90
15115;DHT22;7658;51.456;7.622;2022-08-03T09:59:15;29.20;99.90
15115;DHT22;7658;51.456;7.622;2022-08-03T10:01:47;29.20;99.90
15115;DHT22;7658;51.456;7.622;2022-08-03T10:04:14;29.20;99.90
15115;DHT22;7658;51.456;7.622;2022-08-03T10:06:45;29.30;99.90
15115;DHT22;7658;51.456;7.622;2022-08-03T10:09:15;29.30;99.90
15115;DHT22;7658;51.456;7.622;2022-08-03T10:11:42;29.40;99.90
15115;DHT22;7658;51.456;7.622;2022-08-03T10:14:11;29.40;99.90
15115;DHT22;7658;51.456;7.622;2022-08-03T10:16:47;29.30;99.90
15115;DHT22;7658;51.456;7.622;2022-08-03T10:19:14;29.50;99.90
15115;DHT22;7658;51.456;7.622;2022-08-03T10:21:45;29.50;99.90
15115;DHT22;7658;51.456;7.622;2022-08-03T10:24:13;29.50;99.90
15115;DHT22;7658;51.456;7.622;2022-08-03T10:26:43;29.60;99.90
15115;DHT22;7658;51.456;7.622;2022-08-03T10:29:20;29.60;99.90
15115;DHT22;7658;51.456;7.622;2022-08-03T10:31:49;29.50;99.90
15115;DHT22;7658;51.456;7.622;2022-08-03T10:34:22;29.50;99.90
15115;DHT22;7658;51.456;7.622;2022-08-03T10:36:49;29.50;99.90
15115;DHT22;7658;51.456;7.622;2022-08-03T10:39:19;29.50;99.90
15115;DHT22;7658;51.456;7.622;2022-08-03T10:41:47;29.60;99.90
15115;DHT22;7658;51.456;7.622;2022-08-03T10:44:17;29.60;99.90
15115;DHT22;7658;51.456;7.622;2022-08-03T10:46:44;29.60;99.90
15115;DHT22;7658;51.456;7.622;2022-08-03T10:49:13;29.70;99.90
15115;DHT22;7658;51.456;7.622;2022-08-03T10:51:40;29.70;99.90
15115;DHT22;7658;51.456;7.622;2022-08-03T10:54:06;29.70;99.90
15115;DHT22;7658;51.456;7.622;2022-08-03T11:02:11;29.80;99.90
15115;DHT22;7658;51.456;7.622;2022-08-03T11:04:38;29.80;99.90
15115;DHT22;7658;51.456;7.622;2022-08-03T11:07:19;29.90;99.90
15115;DHT22;7658;51.456;7.622;2022-08-03T11:09:53;30.10;99.90
15115;DHT22;7658;51.456;7.622;2022-08-03T11:12:26;30.00;99.90
15115;DHT22;7658;51.456;7.622;2022-08-03T11:14:53;30.00;99.90
15115;DHT22;7658;51.456;7.622;2022-08-03T11:17:20;30.20;99.90
15115;DHT22;7658;51.456;7.622;2022-08-03T11:19:48;30.40;99.90
15115;DHT22;7658;51.456;7.622;2022-08-03T11:22:15;30.40;99.90
15115;DHT22;7658;51.456;7.622;2022-08-03T11:30:22;30.90;99.90
15115;DHT22;7658;51.456;7.622;2022-08-03T11:32:56;30.70;99.90
15115;DHT22;7658;51.456;7.622;2022-08-03T11:40:51;31.00;99.90
15115;DHT22;7658;51.456;7.622;2022-08-03T11:46:15;31.30;99.90
15115;DHT22;7658;51.456;7.622;2022-08-03T11:48:48;31.10;99.90
15115;DHT22;7658;51.456;7.622;2022-08-03T11:51:25;31.00;99.90
15115;DHT22;7658;51.456;7.622;2022-08-03T11:56:18;30.80;99.90
15115;DHT22;7658;51.456;7.622;2022-08-03T11:58:49;30.50;99.90
15115;DHT22;7658;51.456;7.622;2022-08-03T12:01:19;30.60;99.90
15115;DHT22;7658;51.456;7.622;2022-08-03T12:03:46;30.90;99.90
15115;DHT22;7658;51.456;7.622;2022-08-03T12:06:14;31.10;99.90
15115;DHT22;7658;51.456;7.622;2022-08-03T12:08:41;31.10;99.90
15115;DHT22;7658;51.456;7.622;2022-08-03T12:11:10;31.30;99.90
15115;DHT22;7658;51.456;7.622;2022-08-03T12:13:44;31.60;99.90
15115;DHT22;7658;51.456;7.622;2022-08-03T12:16:29;31.60;99.90
15115;DHT22;7658;51.456;7.622;2022-08-03T12:18:59;31.70;99.90
15115;DHT22;7658;51.456;7.622;2022-08-03T12:21:26;31.80;99.90
15115;DHT22;7658;51.456;7.622;2022-08-03T12:23:56;32.00;99.90
15115;DHT22;7658;51.456;7.622;2022-08-03T12:26:24;31.70;99.90
15115;DHT22;7658;51.456;7.622;2022-08-03T12:28:50;31.30;99.90
15115;DHT22;7658;51.456;7.622;2022-08-03T12:31:16;31.10;99.90
15115;DHT22;7658;51.456;7.622;2022-08-03T12:34:02;31.10;99.90
15115;DHT22;7658;51.456;7.622;2022-08-03T12:36:30;31.10;99.90
15115;DHT22;7658;51.456;7.622;2022-08-03T12:39:07;31.10;99.90
15115;DHT22;7658;51.456;7.622;2022-08-03T12:41:39;31.60;99.90
15115;DHT22;7658;51.456;7.622;2022-08-03T12:44:07;31.90;99.90
15115;DHT22;7658;51.456;7.622;2022-08-03T12:46:42;32.00;99.90
15115;DHT22;7658;51.456;7.622;2022-08-03T12:49:12;32.30;99.90
15115;DHT22;7658;51.456;7.622;2022-08-03T12:54:19;32.50;99.90
15115;DHT22;7658;51.456;7.622;2022-08-03T12:57:03;32.80;99.90
15115;DHT22;7658;51.456;7.622;2022-08-03T12:59:31;33.10;99.90
15115;DHT22;7658;51.456;7.622;2022-08-03T13:01:57;32.60;99.90
15115;DHT22;7658;51.456;7.622;2022-08-03T13:07:12;33.10;99.90
15115;DHT22;7658;51.456;7.622;2022-08-03T13:09:46;33.50;99.90
15115;DHT22;7658;51.456;7.622;2022-08-03T13:14:40;33.30;99.90
15115;DHT22;7658;51.456;7.622;2022-08-03T13:17:06;33.40;99.90
15115;DHT22;7658;51.456;7.622;2022-08-03T13:19:33;33.50;99.90
15115;DHT22;7658;51.456;7.622;2022-08-03T13:21:59;33.70;99.90
15115;DHT22;7658;51.456;7.622;2022-08-03T13:24:27;33.90;99.90
15115;DHT22;7658;51.456;7.622;2022-08-03T13:26:52;33.90;99.90
15115;DHT22;7658;51.456;7.622;2022-08-03T13:29:18;34.20;99.90
15115;DHT22;7658;51.456;7.622;2022-08-03T13:31:44;34.20;99.90
15115;DHT22;7658;51.456;7.622;2022-08-03T13:34:09;34.20;99.90
15115;DHT22;7658;51.456;7.622;2022-08-03T13:36:35;34.50;99.90
15115;DHT22;7658;51.456;7.622;2022-08-03T13:39:01;34.80;99.90
15115;DHT22;7658;51.456;7.622;2022-08-03T13:41:27;33.80;99.90
15115;DHT22;7658;51.456;7.622;2022-08-03T13:43:52;33.80;99.90
15115;DHT22;7658;51.456;7.622;2022-08-03T13:46:20;33.70;99.90
15115;DHT22;7658;51.456;7.622;2022-08-03T13:48:46;33.70;99.90
15115;DHT22;7658;51.456;7.622;2022-08-03T13:51:11;33.60;99.90
15115;DHT22;7658;51.456;7.622;2022-08-03T13:53:37;34.00;99.90
15115;DHT22;7658;51.456;7.622;2022-08-03T13:56:03;33.70;99.90
15115;DHT22;7658;51.456;7.622;2022-08-03T13:58:29;34.00;99.90
15115;DHT22;7658;51.456;7.622;2022-08-03T14:00:54;34.50;99.90
15115;DHT22;7658;51.456;7.622;2022-08-03T14:03:20;34.00;99.90
15115;DHT22;7658;51.456;7.622;2022-08-03T14:05:47;33.60;99.90
15115;DHT22;7658;51.456;7.622;2022-08-03T14:08:13;33.80;99.90
15115;DHT22;7658;51.456;7.622;2022-08-03T14:10:41;33.90;99.90
15115;DHT22;7658;51.456;7.622;2022-08-03T14:13:09;34.00;99.90
15115;DHT22;7658;51.456;7.622;2022-08-03T14:15:34;34.20;99.90
15115;DHT22;7658;51.456;7.622;2022-08-03T14:18:00;33.80;99.90
15115;DHT22;7658;51.456;7.622;2022-08-03T14:20:26;33.50;99.90
15115;DHT22;7658;51.456;7.622;2022-08-03T14:22:53;33.60;99.90
15115;DHT22;7658;51.456;7.622;2022-08-03T14:25:19;33.30;99.90
15115;DHT22;7658;51.456;7.622;2022-08-03T14:27:44;33.40;99.90
15115;DHT22;7658;51.456;7.622;2022-08-03T14:30:10;33.50;99.90
15115;DHT22;7658;51.456;7.622;2022-08-03T14:32:36;33.50;99.90
15115;DHT22;7658;51.456;7.622;2022-08-03T14:35:02;33.90;99.90
15115;DHT22;7658;51.456;7.622;2022-08-03T14:37:28;34.00;99.90
15115;DHT22;7658;51.456;7.622;2022-08-03T14:39:54;34.00;99.90
15115;DHT22;7658;51.456;7.622;2022-08-03T14:42:20;34.60;99.90
15115;DHT22;7658;51.456;7.622;2022-08-03T14:44:46;34.30;99.90
15115;DHT22;7658;51.456;7.622;2022-08-03T14:47:12;34.60;99.90
15115;DHT22;7658;51.456;7.622;2022-08-03T14:49:37;34.60;99.90
15115;DHT22;7658;51.456;7.622;2022-08-03T14:52:04;34.70;99.90
15115;DHT22;7658;51.456;7.622;2022-08-03T14:54:29;34.20;99.90
15115;DHT22;7658;51.456;7.622;2022-08-03T14:56:56;34.30;99.90
15115;DHT22;7658;51.456;7.622;2022-08-03T14:59:22;34.50;99.90
15115;DHT22;7658;51.456;7.622;2022-08-03T15:01:47;34.40;99.90
15115;DHT22;7658;51.456;7.622;2022-08-03T15:04:13;34.10;99.90
15115;DHT22;7658;51.456;7.622;2022-08-03T15:06:39;34.00;99.90
15115;DHT22;7658;51.456;7.622;2022-08-03T15:09:05;34.10;99.90
15115;DHT22;7658;51.456;7.622;2022-08-03T15:11:31;34.30;99.90
15115;DHT22;7658;51.456;7.622;2022-08-03T15:13:56;34.00;99.90
15115;DHT22;7658;51.456;7.622;2022-08-03T15:16:22;33.60;99.90
15115;DHT22;7658;51.456;7.622;2022-08-03T15:18:48;33.20;99.90
15115;DHT22;7658;51.456;7.622;2022-08-03T15:21:13;32.90;99.90
15115;DHT22;7658;51.456;7.622;2022-08-03T15:23:39;32.80;99.90
15115;DHT22;7658;51.456;7.622;2022-08-03T15:26:05;32.40;99.90
15115;DHT22;7658;51.456;7.622;2022-08-03T15:28:31;32.00;99.90
15115;DHT22;7658;51.456;7.622;2022-08-03T15:30:57;32.10;99.90
15115;DHT22;7658;51.456;7.622;2022-08-03T15:33:23;32.30;99.90
15115;DHT22;7658;51.456;7.622;2022-08-03T15:35:49;32.40;99.90
15115;DHT22;7658;51.456;7.622;2022-08-03T15:38:14;32.60;99.90
15115;DHT22;7658;51.456;7.622;2022-08-03T15:40:40;32.80;99.90
15115;DHT22;7658;51.456;7.622;2022-08-03T15:43:06;32.70;99.90
15115;DHT22;7658;51.456;7.622;2022-08-03T15:45:32;32.40;99.90
15115;DHT22;7658;51.456;7.622;2022-08-03T15:47:58;32.40;99.90
15115;DHT22;7658;51.456;7.622;2022-08-03T15:50:23;32.60;99.90
15115;DHT22;7658;51.456;7.622;2022-08-03T15:52:49;32.90;99.90
15115;DHT22;7658;51.456;7.622;2022-08-03T15:55:15;33.00;99.90
15115;DHT22;7658;51.456;7.622;2022-08-03T15:57:41;33.00;99.90
15115;DHT22;7658;51.456;7.622;2022-08-03T16:00:07;33.20;99.90
15115;DHT22;7658;51.456;7.622;2022-08-03T16:02:34;33.20;99.90
15115;DHT22;7658;51.456;7.622;2022-08-03T16:05:00;33.40;99.90
15115;DHT22;7658;51.456;7.622;2022-08-03T16:07:26;33.30;99.90
15115;DHT22;7658;51.456;7.622;2022-08-03T16:10:08;33.40;99.90
15115;DHT22;7658;51.456;7.622;2022-08-03T16:12:35;33.30;99.90
15115;DHT22;7658;51.456;7.622;2022-08-03T16:15:02;33.30;99.90
15115;DHT22;7658;51.456;7.622;2022-08-03T16:17:29;33.10;99.90
15115;DHT22;7658;51.456;7.622;2022-08-03T16:19:54;32.90;99.90
15115;DHT22;7658;51.456;7.622;2022-08-03T16:22:21;32.60;99.90
15115;DHT22;7658;51.456;7.622;2022-08-03T16:24:47;32.30;99.90
15115;DHT22;7658;51.456;7.622;2022-08-03T16:27:12;32.10;99.90
15115;DHT22;7658;51.456;7.622;2022-08-03T16:29:39;31.90;99.90
15115;DHT22;7658;51.456;7.622;2022-08-03T16:32:04;31.80;99.90
15115;DHT22;7658;51.456;7.622;2022-08-03T16:34:34;31.70;99.90
15115;DHT22;7658;51.456;7.622;2022-08-03T16:37:00;31.60;99.90
15115;DHT22;7658;51.456;7.622;2022-08-03T16:39:26;31.60;99.90